METAR Data
IDs: Format: Raw Decoded Include TAF

Data at: 2012 UTC 18 Apr 2021

METAR for:KPEZ (Pleasanton Muni, TX, US)
Text:KPEZ 181955Z AUTO 36007KT 10SM BKN110 21/04 A3011 RMK AO2 T02070039
Temperature: 20.7°C ( 69°F)
Dewpoint: 3.9°C ( 39°F) [RH = 33%]
Pressure (altimeter):30.11 inches Hg (1019.7 mb)
Winds:from the N (360 degrees) at 8 MPH (7 knots; 3.6 m/s)
Visibility:10 or more sm (16+ km)
Ceiling:11000 feet AGL
Clouds: broken clouds at 11000 feet AGL
QC Flag:automated observation with no human augmentation